sensor_id;sensor_type;location;lat;lon;timestamp;pressure;altitude;pressure_sealevel;temperature;humidity
70217;BME280;65567;55.684;37.570;2023-04-23T00:00:03;98910.56;;;14.84;31.94
70217;BME280;65567;55.684;37.570;2023-04-23T00:02:32;98909.63;;;14.85;31.74
70217;BME280;65567;55.684;37.570;2023-04-23T00:05:02;98908.38;;;14.78;31.83
70217;BME280;65567;55.684;37.570;2023-04-23T00:07:35;98914.00;;;14.74;31.87
70217;BME280;65567;55.684;37.570;2023-04-23T00:10:02;98910.94;;;14.67;32.06
70217;BME280;65567;55.684;37.570;2023-04-23T00:12:30;98915.41;;;14.66;31.89
70217;BME280;65567;55.684;37.570;2023-04-23T00:14:58;98923.00;;;14.58;32.15
70217;BME280;65567;55.684;37.570;2023-04-23T00:17:24;98915.72;;;14.62;31.90
70217;BME280;65567;55.684;37.570;2023-04-23T00:19:50;98930.03;;;14.58;32.05
70217;BME280;65567;55.684;37.570;2023-04-23T00:22:16;98925.84;;;14.55;32.32
70217;BME280;65567;55.684;37.570;2023-04-23T00:24:45;98929.34;;;14.56;32.21
70217;BME280;65567;55.684;37.570;2023-04-23T00:27:11;98923.66;;;14.49;32.30
70217;BME280;65567;55.684;37.570;2023-04-23T00:29:37;98927.88;;;14.51;32.22
70217;BME280;65567;55.684;37.570;2023-04-23T00:32:03;98931.22;;;14.53;31.98
70217;BME280;65567;55.684;37.570;2023-04-23T00:34:29;98930.28;;;14.54;31.83
70217;BME280;65567;55.684;37.570;2023-04-23T00:36:55;98931.03;;;14.57;32.18
70217;BME280;65567;55.684;37.570;2023-04-23T00:39:21;98925.22;;;14.64;32.04
70217;BME280;65567;55.684;37.570;2023-04-23T00:41:47;98933.97;;;14.65;32.03
70217;BME280;65567;55.684;37.570;2023-04-23T00:44:13;98934.47;;;14.70;31.55
70217;BME280;65567;55.684;37.570;2023-04-23T00:46:43;98940.69;;;14.69;31.95
70217;BME280;65567;55.684;37.570;2023-04-23T00:49:09;98933.28;;;14.74;31.53
70217;BME280;65567;55.684;37.570;2023-04-23T00:51:35;98946.75;;;14.82;31.65
70217;BME280;65567;55.684;37.570;2023-04-23T00:54:01;98933.13;;;14.89;31.47
70217;BME280;65567;55.684;37.570;2023-04-23T00:56:27;98940.59;;;14.95;31.66
70217;BME280;65567;55.684;37.570;2023-04-23T00:58:54;98935.69;;;15.01;31.39
70217;BME280;65567;55.684;37.570;2023-04-23T01:01:21;98932.03;;;15.15;31.06
70217;BME280;65567;55.684;37.570;2023-04-23T01:03:48;98944.50;;;15.13;31.29
70217;BME280;65567;55.684;37.570;2023-04-23T01:06:17;98943.78;;;15.11;31.19
70217;BME280;65567;55.684;37.570;2023-04-23T01:08:44;98943.03;;;15.09;31.35
70217;BME280;65567;55.684;37.570;2023-04-23T01:11:12;98945.63;;;14.98;31.79
70217;BME280;65567;55.684;37.570;2023-04-23T01:13:40;98943.94;;;14.97;31.68
70217;BME280;65567;55.684;37.570;2023-04-23T01:16:07;98945.81;;;14.83;31.60
70217;BME280;65567;55.684;37.570;2023-04-23T01:18:33;98944.84;;;14.84;31.70
70217;BME280;65567;55.684;37.570;2023-04-23T01:20:59;98943.59;;;14.77;31.55
70217;BME280;65567;55.684;37.570;2023-04-23T01:23:26;98951.13;;;14.70;31.74
70217;BME280;65567;55.684;37.570;2023-04-23T01:25:53;98947.03;;;14.66;31.92
70217;BME280;65567;55.684;37.570;2023-04-23T01:28:20;98951.00;;;14.72;32.15
70217;BME280;65567;55.684;37.570;2023-04-23T01:30:46;98948.59;;;14.69;32.09
70217;BME280;65567;55.684;37.570;2023-04-23T01:33:13;98949.88;;;14.63;32.03
70217;BME280;65567;55.684;37.570;2023-04-23T01:35:42;98951.75;;;14.61;32.02
70217;BME280;65567;55.684;37.570;2023-04-23T01:38:10;98949.25;;;14.60;32.20
70217;BME280;65567;55.684;37.570;2023-04-23T01:40:37;98954.38;;;14.74;31.82
70217;BME280;65567;55.684;37.570;2023-04-23T01:43:04;98960.28;;;14.78;32.16
70217;BME280;65567;55.684;37.570;2023-04-23T01:45:30;98954.63;;;14.71;31.83
70217;BME280;65567;55.684;37.570;2023-04-23T01:47:57;98952.31;;;14.66;31.98
70217;BME280;65567;55.684;37.570;2023-04-23T01:50:23;98958.09;;;14.72;32.44
70217;BME280;65567;55.684;37.570;2023-04-23T01:52:50;98953.88;;;14.69;32.15
70217;BME280;65567;55.684;37.570;2023-04-23T01:55:16;98957.16;;;14.60;32.49
70217;BME280;65567;55.684;37.570;2023-04-23T01:57:46;98957.38;;;14.57;32.51
70217;BME280;65567;55.684;37.570;2023-04-23T02:00:13;98957.69;;;14.52;32.77
70217;BME280;65567;55.684;37.570;2023-04-23T02:02:41;98952.75;;;14.47;32.71
70217;BME280;65567;55.684;37.570;2023-04-23T02:05:15;98961.09;;;14.54;32.70
70217;BME280;65567;55.684;37.570;2023-04-23T02:07:47;98955.38;;;14.47;32.13
70217;BME280;65567;55.684;37.570;2023-04-23T02:10:13;98956.88;;;14.51;32.34
70217;BME280;65567;55.684;37.570;2023-04-23T02:12:39;98962.84;;;14.53;32.62
70217;BME280;65567;55.684;37.570;2023-04-23T02:15:07;98966.00;;;14.59;32.21
70217;BME280;65567;55.684;37.570;2023-04-23T02:17:33;98961.03;;;14.67;32.35
70217;BME280;65567;55.684;37.570;2023-04-23T02:20:00;98969.78;;;14.80;31.69
70217;BME280;65567;55.684;37.570;2023-04-23T02:22:26;98968.81;;;14.81;31.81
70217;BME280;65567;55.684;37.570;2023-04-23T02:24:53;98969.34;;;14.86;31.85
70217;BME280;65567;55.684;37.570;2023-04-23T02:27:20;98970.78;;;14.91;31.92
70217;BME280;65567;55.684;37.570;2023-04-23T02:29:47;98978.97;;;14.99;31.75
70217;BME280;65567;55.684;37.570;2023-04-23T02:32:13;98980.25;;;15.17;31.46
70217;BME280;65567;55.684;37.570;2023-04-23T02:34:39;98985.25;;;15.45;31.20
70217;BME280;65567;55.684;37.570;2023-04-23T02:37:05;98973.00;;;15.79;30.74
70217;BME280;65567;55.684;37.570;2023-04-23T02:39:32;98977.47;;;15.90;30.64
70217;BME280;65567;55.684;37.570;2023-04-23T02:41:58;98971.59;;;16.32;30.06
70217;BME280;65567;55.684;37.570;2023-04-23T02:44:24;98971.31;;;16.69;29.49
70217;BME280;65567;55.684;37.570;2023-04-23T02:46:51;98982.09;;;17.00;29.42
70217;BME280;65567;55.684;37.570;2023-04-23T02:49:17;98982.56;;;17.38;28.67
70217;BME280;65567;55.684;37.570;2023-04-23T02:51:45;98980.03;;;17.78;28.31
70217;BME280;65567;55.684;37.570;2023-04-23T02:54:11;98988.09;;;18.19;27.83
70217;BME280;65567;55.684;37.570;2023-04-23T02:56:38;98972.03;;;18.52;27.46
70217;BME280;65567;55.684;37.570;2023-04-23T02:59:04;98973.41;;;18.96;26.63
70217;BME280;65567;55.684;37.570;2023-04-23T03:01:31;98981.09;;;19.19;26.42
70217;BME280;65567;55.684;37.570;2023-04-23T03:03:57;98981.09;;;19.48;26.01
70217;BME280;65567;55.684;37.570;2023-04-23T03:06:23;98986.06;;;19.91;25.44
70217;BME280;65567;55.684;37.570;2023-04-23T03:08:49;98988.91;;;20.55;24.38
70217;BME280;65567;55.684;37.570;2023-04-23T03:11:15;98982.94;;;20.99;23.81
70217;BME280;65567;55.684;37.570;2023-04-23T03:13:41;98985.59;;;21.71;22.93
70217;BME280;65567;55.684;37.570;2023-04-23T03:16:07;98986.91;;;22.27;22.37
70217;BME280;65567;55.684;37.570;2023-04-23T03:18:33;98985.66;;;22.83;21.86
70217;BME280;65567;55.684;37.570;2023-04-23T03:20:59;98984.44;;;23.36;21.12
70217;BME280;65567;55.684;37.570;2023-04-23T03:23:25;98989.94;;;23.68;20.66
70217;BME280;65567;55.684;37.570;2023-04-23T03:25:51;99001.47;;;23.93;20.45
70217;BME280;65567;55.684;37.570;2023-04-23T03:28:17;99000.75;;;24.16;20.05
70217;BME280;65567;55.684;37.570;2023-04-23T03:30:43;99003.56;;;24.31;19.84
70217;BME280;65567;55.684;37.570;2023-04-23T03:33:09;99008.84;;;23.91;19.96
70217;BME280;65567;55.684;37.570;2023-04-23T03:35:35;99011.50;;;23.50;20.50
70217;BME280;65567;55.684;37.570;2023-04-23T03:38:01;99010.78;;;23.15;20.89
70217;BME280;65567;55.684;37.570;2023-04-23T03:40:27;99022.00;;;22.75;21.25
70217;BME280;65567;55.684;37.570;2023-04-23T03:42:53;99016.44;;;22.26;21.62
70217;BME280;65567;55.684;37.570;2023-04-23T03:45:19;99028.09;;;21.72;22.40
70217;BME280;65567;55.684;37.570;2023-04-23T03:47:44;99023.22;;;21.32;23.07
70217;BME280;65567;55.684;37.570;2023-04-23T03:50:10;99017.50;;;21.08;23.50
70217;BME280;65567;55.684;37.570;2023-04-23T03:52:40;99026.22;;;20.83;23.67
70217;BME280;65567;55.684;37.570;2023-04-23T03:55:06;99025.78;;;20.50;23.85
70217;BME280;65567;55.684;37.570;2023-04-23T03:57:32;99028.53;;;20.20;24.30
70217;BME280;65567;55.684;37.570;2023-04-23T03:59:58;99025.78;;;20.02;24.46
70217;BME280;65567;55.684;37.570;2023-04-23T04:02:25;99030.84;;;19.86;25.03
70217;BME280;65567;55.684;37.570;2023-04-23T04:04:51;99032.84;;;19.84;24.94
70217;BME280;65567;55.684;37.570;2023-04-23T04:07:19;99036.03;;;19.77;24.71
70217;BME280;65567;55.684;37.570;2023-04-23T04:09:45;99028.50;;;19.83;24.81
70217;BME280;65567;55.684;37.570;2023-04-23T04:12:14;99033.31;;;20.17;24.49
70217;BME280;65567;55.684;37.570;2023-04-23T04:14:43;99035.09;;;20.73;24.12
70217;BME280;65567;55.684;37.570;2023-04-23T04:17:09;99040.94;;;21.23;23.35
70217;BME280;65567;55.684;37.570;2023-04-23T04:19:35;99040.13;;;21.58;23.31
70217;BME280;65567;55.684;37.570;2023-04-23T04:22:01;99043.59;;;22.48;22.24
70217;BME280;65567;55.684;37.570;2023-04-23T04:24:28;99042.75;;;22.82;21.69
70217;BME280;65567;55.684;37.570;2023-04-23T04:27:00;99042.75;;;23.49;20.96
70217;BME280;65567;55.684;37.570;2023-04-23T04:29:28;99045.09;;;23.61;20.67
70217;BME280;65567;55.684;37.570;2023-04-23T04:31:55;99047.09;;;23.83;20.30
70217;BME280;65567;55.684;37.570;2023-04-23T04:34:21;99050.25;;;23.79;20.59
70217;BME280;65567;55.684;37.570;2023-04-23T04:36:48;99042.91;;;23.56;20.45
70217;BME280;65567;55.684;37.570;2023-04-23T04:39:15;99050.91;;;23.39;20.85
70217;BME280;65567;55.684;37.570;2023-04-23T04:41:42;99052.63;;;23.57;20.65
70217;BME280;65567;55.684;37.570;2023-04-23T04:44:08;99046.72;;;23.20;20.82
70217;BME280;65567;55.684;37.570;2023-04-23T04:46:34;99063.47;;;22.88;21.23
70217;BME280;65567;55.684;37.570;2023-04-23T04:49:09;99056.50;;;22.60;21.04
70217;BME280;65567;55.684;37.570;2023-04-23T04:51:38;99067.16;;;22.34;22.04
70217;BME280;65567;55.684;37.570;2023-04-23T04:54:04;99061.31;;;22.04;21.49
70217;BME280;65567;55.684;37.570;2023-04-23T04:56:34;99071.69;;;22.07;21.83
70217;BME280;65567;55.684;37.570;2023-04-23T04:59:01;99061.22;;;21.88;21.80
70217;BME280;65567;55.684;37.570;2023-04-23T05:01:27;99068.41;;;22.14;22.63
70217;BME280;65567;55.684;37.570;2023-04-23T05:03:54;99066.19;;;22.61;21.96
70217;BME280;65567;55.684;37.570;2023-04-23T05:06:20;99063.31;;;22.55;22.10
70217;BME280;65567;55.684;37.570;2023-04-23T05:08:46;99070.84;;;22.59;21.48
70217;BME280;65567;55.684;37.570;2023-04-23T05:11:16;99073.91;;;22.38;21.46
70217;BME280;65567;55.684;37.570;2023-04-23T05:13:46;99076.19;;;22.33;21.62
70217;BME280;65567;55.684;37.570;2023-04-23T05:16:12;99076.50;;;22.30;21.57
70217;BME280;65567;55.684;37.570;2023-04-23T05:18:41;99076.72;;;22.63;21.32
70217;BME280;65567;55.684;37.570;2023-04-23T05:21:07;99084.66;;;23.49;20.75
70217;BME280;65567;55.684;37.570;2023-04-23T05:23:34;99077.72;;;24.05;20.06
70217;BME280;65567;55.684;37.570;2023-04-23T05:26:01;99079.63;;;24.45;19.60
70217;BME280;65567;55.684;37.570;2023-04-23T05:28:30;99090.00;;;24.56;19.55
70217;BME280;65567;55.684;37.570;2023-04-23T05:30:57;99084.00;;;24.46;19.45
70217;BME280;65567;55.684;37.570;2023-04-23T05:33:23;99090.25;;;24.86;19.83
70217;BME280;65567;55.684;37.570;2023-04-23T05:35:50;99087.19;;;24.97;19.30
70217;BME280;65567;55.684;37.570;2023-04-23T05:38:16;99092.69;;;25.04;19.37
70217;BME280;65567;55.684;37.570;2023-04-23T05:40:42;99087.03;;;24.42;19.68
70217;BME280;65567;55.684;37.570;2023-04-23T05:43:08;99089.78;;;23.93;20.04
70217;BME280;65567;55.684;37.570;2023-04-23T05:45:34;99095.41;;;23.65;20.46
70217;BME280;65567;55.684;37.570;2023-04-23T05:48:00;99099.06;;;23.48;20.39
70217;BME280;65567;55.684;37.570;2023-04-23T05:50:26;99097.06;;;23.74;20.31
70217;BME280;65567;55.684;37.570;2023-04-23T05:52:52;99093.41;;;24.25;19.95
70217;BME280;65567;55.684;37.570;2023-04-23T05:55:19;99098.41;;;24.36;19.69
70217;BME280;65567;55.684;37.570;2023-04-23T05:57:45;99099.69;;;24.65;19.48
70217;BME280;65567;55.684;37.570;2023-04-23T06:00:12;99096.19;;;25.04;19.02
70217;BME280;65567;55.684;37.570;2023-04-23T06:02:39;99100.16;;;25.17;19.08
70217;BME280;65567;55.684;37.570;2023-04-23T06:05:06;99102.88;;;25.71;18.49
70217;BME280;65567;55.684;37.570;2023-04-23T06:07:32;99103.38;;;25.90;18.36
70217;BME280;65567;55.684;37.570;2023-04-23T06:09:58;99103.19;;;25.92;18.23
70217;BME280;65567;55.684;37.570;2023-04-23T06:12:24;99107.75;;;25.91;17.93
70217;BME280;65567;55.684;37.570;2023-04-23T06:14:53;99111.84;;;25.79;17.80
70217;BME280;65567;55.684;37.570;2023-04-23T06:17:19;99104.84;;;25.78;17.97
70217;BME280;65567;55.684;37.570;2023-04-23T06:19:45;99116.72;;;26.07;18.07
70217;BME280;65567;55.684;37.570;2023-04-23T06:22:11;99111.94;;;26.32;17.93
70217;BME280;65567;55.684;37.570;2023-04-23T06:24:37;99118.09;;;26.17;17.83
70217;BME280;65567;55.684;37.570;2023-04-23T06:27:03;99111.19;;;26.00;18.03
70217;BME280;65567;55.684;37.570;2023-04-23T06:29:29;99117.47;;;25.92;18.14
70217;BME280;65567;55.684;37.570;2023-04-23T06:31:55;99119.06;;;26.39;18.37
70217;BME280;65567;55.684;37.570;2023-04-23T06:34:22;99121.66;;;26.48;17.59
70217;BME280;65567;55.684;37.570;2023-04-23T06:36:50;99130.91;;;26.83;18.41
70217;BME280;65567;55.684;37.570;2023-04-23T06:39:16;99126.03;;;27.24;17.50
70217;BME280;65567;55.684;37.570;2023-04-23T06:41:42;99125.56;;;27.05;17.27
70217;BME280;65567;55.684;37.570;2023-04-23T06:44:08;99131.88;;;27.27;17.76
70217;BME280;65567;55.684;37.570;2023-04-23T06:46:37;99125.44;;;27.43;18.52
70217;BME280;65567;55.684;37.570;2023-04-23T06:49:03;99132.19;;;27.54;17.45
70217;BME280;65567;55.684;37.570;2023-04-23T06:51:29;99132.38;;;27.37;16.96
70217;BME280;65567;55.684;37.570;2023-04-23T06:53:56;99134.03;;;27.02;17.43
70217;BME280;65567;55.684;37.570;2023-04-23T06:56:23;99140.41;;;27.16;17.98
70217;BME280;65567;55.684;37.570;2023-04-23T06:58:50;99137.16;;;27.20;17.59
70217;BME280;65567;55.684;37.570;2023-04-23T07:01:18;99132.97;;;27.18;17.93
70217;BME280;65567;55.684;37.570;2023-04-23T07:03:44;99146.28;;;27.56;17.63
70217;BME280;65567;55.684;37.570;2023-04-23T07:06:16;99147.69;;;27.74;17.65
70217;BME280;65567;55.684;37.570;2023-04-23T07:08:42;99145.53;;;27.84;17.96
70217;BME280;65567;55.684;37.570;2023-04-23T07:11:10;99145.81;;;28.11;17.69
70217;BME280;65567;55.684;37.570;2023-04-23T07:13:36;99137.69;;;28.04;17.58
70217;BME280;65567;55.684;37.570;2023-04-23T07:16:02;99148.47;;;27.67;17.43
70217;BME280;65567;55.684;37.570;2023-04-23T07:18:28;99147.69;;;27.37;18.30
70217;BME280;65567;55.684;37.570;2023-04-23T07:20:54;99140.66;;;27.51;18.01
70217;BME280;65567;55.684;37.570;2023-04-23T07:23:20;99146.13;;;27.43;17.53
70217;BME280;65567;55.684;37.570;2023-04-23T07:25:46;99143.00;;;27.61;17.33
70217;BME280;65567;55.684;37.570;2023-04-23T07:28:12;99139.38;;;27.47;18.38
70217;BME280;65567;55.684;37.570;2023-04-23T07:30:38;99139.22;;;27.98;17.75
70217;BME280;65567;55.684;37.570;2023-04-23T07:33:04;99145.09;;;28.24;17.43
70217;BME280;65567;55.684;37.570;2023-04-23T07:35:30;99143.97;;;28.18;17.02
70217;BME280;65567;55.684;37.570;2023-04-23T07:37:55;99152.19;;;27.66;17.06
70217;BME280;65567;55.684;37.570;2023-04-23T07:40:22;99155.19;;;27.57;17.36
70217;BME280;65567;55.684;37.570;2023-04-23T07:42:49;99153.94;;;27.74;17.27
70217;BME280;65567;55.684;37.570;2023-04-23T07:45:16;99145.81;;;28.11;16.66
70217;BME280;65567;55.684;37.570;2023-04-23T07:47:45;99146.59;;;28.33;16.56
70217;BME280;65567;55.684;37.570;2023-04-23T07:50:11;99149.84;;;28.50;16.63
70217;BME280;65567;55.684;37.570;2023-04-23T07:52:37;99153.66;;;27.69;16.99
70217;BME280;65567;55.684;37.570;2023-04-23T07:55:04;99148.50;;;28.11;16.90
70217;BME280;65567;55.684;37.570;2023-04-23T07:57:30;99150.03;;;28.48;16.54
70217;BME280;65567;55.684;37.570;2023-04-23T07:59:56;99146.50;;;28.76;16.73
70217;BME280;65567;55.684;37.570;2023-04-23T08:02:22;99142.22;;;28.60;15.79
70217;BME280;65567;55.684;37.570;2023-04-23T08:04:52;99141.16;;;28.83;16.13
70217;BME280;65567;55.684;37.570;2023-04-23T08:07:18;99145.25;;;29.14;15.73
70217;BME280;65567;55.684;37.570;2023-04-23T08:09:44;99137.16;;;29.21;15.56
70217;BME280;65567;55.684;37.570;2023-04-23T08:12:10;99144.75;;;29.52;14.92
70217;BME280;65567;55.684;37.570;2023-04-23T08:14:36;99147.25;;;29.47;13.86
70217;BME280;65567;55.684;37.570;2023-04-23T08:17:02;99150.22;;;29.65;13.88
70217;BME280;65567;55.684;37.570;2023-04-23T08:19:28;99141.16;;;30.33;13.72
70217;BME280;65567;55.684;37.570;2023-04-23T08:21:58;99135.47;;;30.82;13.51
70217;BME280;65567;55.684;37.570;2023-04-23T08:24:28;99142.28;;;30.91;13.61
70217;BME280;65567;55.684;37.570;2023-04-23T08:26:54;99143.63;;;30.69;13.85
70217;BME280;65567;55.684;37.570;2023-04-23T08:29:20;99141.03;;;31.01;13.99
70217;BME280;65567;55.684;37.570;2023-04-23T08:31:46;99147.03;;;31.16;13.29
70217;BME280;65567;55.684;37.570;2023-04-23T08:34:12;99130.59;;;31.18;13.68
70217;BME280;65567;55.684;37.570;2023-04-23T08:36:39;99145.16;;;31.17;12.69
70217;BME280;65567;55.684;37.570;2023-04-23T08:39:05;99135.25;;;30.77;12.74
70217;BME280;65567;55.684;37.570;2023-04-23T08:41:38;99134.28;;;30.38;12.96
70217;BME280;65567;55.684;37.570;2023-04-23T08:44:33;99141.72;;;29.82;13.19
70217;BME280;65567;55.684;37.570;2023-04-23T08:47:03;99138.97;;;29.55;13.75
70217;BME280;65567;55.684;37.570;2023-04-23T08:49:32;99136.28;;;29.07;13.57
70217;BME280;65567;55.684;37.570;2023-04-23T08:52:08;99135.19;;;29.36;13.78
70217;BME280;65567;55.684;37.570;2023-04-23T08:54:40;99129.88;;;29.76;14.60
70217;BME280;65567;55.684;37.570;2023-04-23T08:57:10;99130.94;;;30.29;13.73
70217;BME280;65567;55.684;37.570;2023-04-23T08:59:40;99126.56;;;30.75;12.96
70217;BME280;65567;55.684;37.570;2023-04-23T09:02:08;99128.88;;;31.23;12.94
70217;BME280;65567;55.684;37.570;2023-04-23T09:04:37;99127.34;;;31.79;12.07
70217;BME280;65567;55.684;37.570;2023-04-23T09:07:04;99129.56;;;31.89;12.09
70217;BME280;65567;55.684;37.570;2023-04-23T09:09:32;99118.31;;;32.11;11.94
70217;BME280;65567;55.684;37.570;2023-04-23T09:11:59;99130.78;;;31.68;11.64
70217;BME280;65567;55.684;37.570;2023-04-23T09:14:25;99126.28;;;32.06;12.06
70217;BME280;65567;55.684;37.570;2023-04-23T09:16:53;99120.19;;;32.17;12.21
70217;BME280;65567;55.684;37.570;2023-04-23T09:19:19;99114.16;;;32.15;11.85
70217;BME280;65567;55.684;37.570;2023-04-23T09:21:45;99110.66;;;32.77;11.39
70217;BME280;65567;55.684;37.570;2023-04-23T09:24:15;99111.94;;;32.74;11.38
70217;BME280;65567;55.684;37.570;2023-04-23T09:26:46;99112.56;;;31.75;11.66
70217;BME280;65567;55.684;37.570;2023-04-23T09:29:15;99119.22;;;30.95;12.54
70217;BME280;65567;55.684;37.570;2023-04-23T09:31:46;99113.34;;;31.05;12.37
70217;BME280;65567;55.684;37.570;2023-04-23T09:34:15;99115.78;;;30.48;12.59
70217;BME280;65567;55.684;37.570;2023-04-23T09:36:46;99110.81;;;30.18;12.89
70217;BME280;65567;55.684;37.570;2023-04-23T09:39:15;99107.47;;;30.09;12.93
70217;BME280;65567;55.684;37.570;2023-04-23T09:41:43;99104.53;;;29.77;13.30
70217;BME280;65567;55.684;37.570;2023-04-23T09:44:11;99103.25;;;29.66;13.18
70217;BME280;65567;55.684;37.570;2023-04-23T09:46:40;99101.41;;;29.60;13.37
70217;BME280;65567;55.684;37.570;2023-04-23T09:49:09;99104.47;;;29.37;13.50
70217;BME280;65567;55.684;37.570;2023-04-23T09:54:02;99107.38;;;27.80;14.30
70217;BME280;65567;55.684;37.570;2023-04-23T09:56:29;99106.69;;;27.50;14.95
70217;BME280;65567;55.684;37.570;2023-04-23T09:58:56;99104.66;;;27.00;15.39
70217;BME280;65567;55.684;37.570;2023-04-23T10:01:29;99101.78;;;26.72;15.36
70217;BME280;65567;55.684;37.570;2023-04-23T10:03:55;99096.22;;;26.88;15.68
70217;BME280;65567;55.684;37.570;2023-04-23T10:06:28;99102.28;;;27.64;15.55
70217;BME280;65567;55.684;37.570;2023-04-23T10:08:56;99092.28;;;28.29;15.01
70217;BME280;65567;55.684;37.570;2023-04-23T10:11:24;99091.75;;;28.76;14.47
70217;BME280;65567;55.684;37.570;2023-04-23T10:13:50;99093.97;;;29.14;13.73
70217;BME280;65567;55.684;37.570;2023-04-23T10:16:19;99091.56;;;29.32;13.71
70217;BME280;65567;55.684;37.570;2023-04-23T10:18:46;99084.56;;;29.38;13.76
70217;BME280;65567;55.684;37.570;2023-04-23T10:21:14;99086.84;;;29.48;13.62
70217;BME280;65567;55.684;37.570;2023-04-23T10:23:43;99079.66;;;29.89;13.51
70217;BME280;65567;55.684;37.570;2023-04-23T10:26:14;99083.19;;;29.89;13.50
70217;BME280;65567;55.684;37.570;2023-04-23T10:28:46;99090.44;;;30.22;13.15
70217;BME280;65567;55.684;37.570;2023-04-23T10:31:14;99084.00;;;30.10;13.42
70217;BME280;65567;55.684;37.570;2023-04-23T10:33:41;99077.94;;;30.48;13.24
70217;BME280;65567;55.684;37.570;2023-04-23T10:36:08;99087.94;;;30.27;12.68
70217;BME280;65567;55.684;37.570;2023-04-23T10:38:34;99087.13;;;29.93;12.84
70217;BME280;65567;55.684;37.570;2023-04-23T10:41:01;99086.47;;;29.78;13.57
70217;BME280;65567;55.684;37.570;2023-04-23T10:43:27;99079.44;;;29.97;13.32
70217;BME280;65567;55.684;37.570;2023-04-23T10:45:56;99082.97;;;29.97;13.18
70217;BME280;65567;55.684;37.570;2023-04-23T10:48:22;99074.66;;;29.92;13.56
70217;BME280;65567;55.684;37.570;2023-04-23T10:50:56;99081.72;;;29.93;12.95
70217;BME280;65567;55.684;37.570;2023-04-23T10:53:24;99078.53;;;29.49;13.33
70217;BME280;65567;55.684;37.570;2023-04-23T10:56:04;99074.91;;;29.22;13.67
70217;BME280;65567;55.684;37.570;2023-04-23T10:58:47;99079.16;;;28.55;13.52
70217;BME280;65567;55.684;37.570;2023-04-23T11:01:16;99071.38;;;28.03;14.56
70217;BME280;65567;55.684;37.570;2023-04-23T11:03:42;99070.28;;;27.76;14.91
70217;BME280;65567;55.684;37.570;2023-04-23T11:06:10;99066.25;;;27.65;15.52
70217;BME280;65567;55.684;37.570;2023-04-23T11:08:37;99057.34;;;27.64;14.89
70217;BME280;65567;55.684;37.570;2023-04-23T11:11:07;99057.34;;;27.64;15.29
70217;BME280;65567;55.684;37.570;2023-04-23T11:13:34;99049.78;;;27.53;15.40
70217;BME280;65567;55.684;37.570;2023-04-23T11:16:17;99042.75;;;27.52;17.04
70217;BME280;65567;55.684;37.570;2023-04-23T11:19:03;99045.47;;;27.37;17.37
70217;BME280;65567;55.684;37.570;2023-04-23T11:22:05;99048.22;;;27.22;16.97
70217;BME280;65567;55.684;37.570;2023-04-23T11:24:37;99047.38;;;26.85;17.22
70217;BME280;65567;55.684;37.570;2023-04-23T11:27:08;99045.63;;;27.14;15.86
70217;BME280;65567;55.684;37.570;2023-04-23T11:29:39;99047.00;;;26.88;16.17
70217;BME280;65567;55.684;37.570;2023-04-23T11:32:05;99040.72;;;26.51;17.14
70217;BME280;65567;55.684;37.570;2023-04-23T11:34:45;99036.72;;;26.62;16.95
70217;BME280;65567;55.684;37.570;2023-04-23T11:37:12;99043.56;;;26.04;16.45
70217;BME280;65567;55.684;37.570;2023-04-23T11:39:44;99047.81;;;25.76;16.51
70217;BME280;65567;55.684;37.570;2023-04-23T11:42:12;99046.34;;;25.73;17.23
70217;BME280;65567;55.684;37.570;2023-04-23T11:44:43;99043.13;;;25.78;18.42
70217;BME280;65567;55.684;37.570;2023-04-23T11:47:12;99051.81;;;25.80;18.11
70217;BME280;65567;55.684;37.570;2023-04-23T11:49:40;99040.34;;;25.86;18.15
70217;BME280;65567;55.684;37.570;2023-04-23T11:52:10;99038.78;;;25.92;18.24
70217;BME280;65567;55.684;37.570;2023-04-23T11:54:39;99040.34;;;25.86;18.47
70217;BME280;65567;55.684;37.570;2023-04-23T11:57:05;99039.78;;;26.14;17.20
70217;BME280;65567;55.684;37.570;2023-04-23T11:59:31;99042.84;;;26.11;17.05
70217;BME280;65567;55.684;37.570;2023-04-23T12:01:58;99040.47;;;25.93;17.04
70217;BME280;65567;55.684;37.570;2023-04-23T12:04:27;99030.25;;;25.50;17.26
70217;BME280;65567;55.684;37.570;2023-04-23T12:06:55;99035.84;;;25.08;17.41
70217;BME280;65567;55.684;37.570;2023-04-23T12:09:23;99041.34;;;24.92;17.69
70217;BME280;65567;55.684;37.570;2023-04-23T12:11:49;99040.03;;;24.80;17.74
70217;BME280;65567;55.684;37.570;2023-04-23T12:14:17;99048.44;;;25.08;17.92
70217;BME280;65567;55.684;37.570;2023-04-23T12:16:46;99042.44;;;25.29;17.62
70217;BME280;65567;55.684;37.570;2023-04-23T12:19:24;99041.41;;;25.38;18.86
70217;BME280;65567;55.684;37.570;2023-04-23T12:21:55;99042.59;;;25.59;17.62
70217;BME280;65567;55.684;37.570;2023-04-23T12:24:26;99026.09;;;25.47;18.10
70217;BME280;65567;55.684;37.570;2023-04-23T12:26:54;99034.03;;;25.40;17.51
70217;BME280;65567;55.684;37.570;2023-04-23T12:29:21;99048.56;;;25.15;17.70
70217;BME280;65567;55.684;37.570;2023-04-23T12:31:49;99035.28;;;25.21;17.75
70217;BME280;65567;55.684;37.570;2023-04-23T12:34:17;99036.03;;;25.38;17.56
70217;BME280;65567;55.684;37.570;2023-04-23T12:36:51;99027.66;;;25.33;18.54
70217;BME280;65567;55.684;37.570;2023-04-23T12:41:50;99026.75;;;24.63;17.80
70217;BME280;65567;55.684;37.570;2023-04-23T12:44:17;99022.69;;;24.67;17.97
70217;BME280;65567;55.684;37.570;2023-04-23T12:46:43;99021.03;;;24.66;18.05
70217;BME280;65567;55.684;37.570;2023-04-23T12:49:09;99021.38;;;24.63;18.35
70217;BME280;65567;55.684;37.570;2023-04-23T12:51:36;99015.81;;;24.17;18.08
70217;BME280;65567;55.684;37.570;2023-04-23T12:54:02;99009.16;;;23.96;18.28
70217;BME280;65567;55.684;37.570;2023-04-23T12:56:28;99009.81;;;23.82;18.48